sensor_id;sensor_type;location;lat;lon;timestamp;pressure;altitude;pressure_sealevel;temperature;humidity
12969;BME280;6549;53.128;8.182;2024-03-02T00:00:34;100037.53;;;7.78;100.00
12969;BME280;6549;53.128;8.182;2024-03-02T00:03:36;100036.38;;;7.83;100.00
12969;BME280;6549;53.128;8.182;2024-03-02T00:06:37;100031.28;;;7.78;100.00
12969;BME280;6549;53.128;8.182;2024-03-02T00:09:37;100036.75;;;7.78;100.00
12969;BME280;6549;53.128;8.182;2024-03-02T00:12:40;100019.16;;;7.79;100.00
12969;BME280;6549;53.128;8.182;2024-03-02T00:15:42;100022.28;;;7.77;100.00
12969;BME280;6549;53.128;8.182;2024-03-02T00:18:46;100019.91;;;7.76;100.00
12969;BME280;6549;53.128;8.182;2024-03-02T00:21:46;100018.75;;;7.77;100.00
12969;BME280;6549;53.128;8.182;2024-03-02T00:24:47;100020.28;;;7.71;100.00
12969;BME280;6549;53.128;8.182;2024-03-02T00:27:48;100021.88;;;7.75;100.00
12969;BME280;6549;53.128;8.182;2024-03-02T00:33:58;100016.03;;;7.77;100.00
12969;BME280;6549;53.128;8.182;2024-03-02T00:37:03;100006.22;;;7.68;100.00
12969;BME280;6549;53.128;8.182;2024-03-02T00:40:04;100005.81;;;7.70;100.00
12969;BME280;6549;53.128;8.182;2024-03-02T00:43:12;100005.44;;;7.72;100.00
12969;BME280;6549;53.128;8.182;2024-03-02T00:46:19;100008.53;;;7.63;100.00
12969;BME280;6549;53.128;8.182;2024-03-02T00:49:24;100007.75;;;7.62;100.00
12969;BME280;6549;53.128;8.182;2024-03-02T00:52:29;100004.63;;;7.60;100.00
12969;BME280;6549;53.128;8.182;2024-03-02T00:55:29;99998.75;;;7.62;100.00
12969;BME280;6549;53.128;8.182;2024-03-02T00:58:30;100002.28;;;7.62;100.00
12969;BME280;6549;53.128;8.182;2024-03-02T01:01:30;99990.53;;;7.58;100.00
12969;BME280;6549;53.128;8.182;2024-03-02T01:04:30;99991.34;;;7.62;100.00
12969;BME280;6549;53.128;8.182;2024-03-02T01:07:31;99991.34;;;7.59;100.00
12969;BME280;6549;53.128;8.182;2024-03-02T01:10:31;99992.91;;;7.56;100.00
12969;BME280;6549;53.128;8.182;2024-03-02T01:13:31;100003.44;;;7.58;100.00
12969;BME280;6549;53.128;8.182;2024-03-02T01:16:58;99995.22;;;7.61;100.00
12969;BME280;6549;53.128;8.182;2024-03-02T01:19:59;99987.00;;;7.54;100.00
12969;BME280;6549;53.128;8.182;2024-03-02T01:22:59;99984.25;;;7.47;100.00
12969;BME280;6549;53.128;8.182;2024-03-02T01:25:59;99981.88;;;7.42;100.00
12969;BME280;6549;53.128;8.182;2024-03-02T01:29:00;99984.63;;;7.42;100.00
12969;BME280;6549;53.128;8.182;2024-03-02T01:32:00;99988.53;;;7.45;100.00
12969;BME280;6549;53.128;8.182;2024-03-02T01:35:01;99983.44;;;7.43;100.00
12969;BME280;6549;53.128;8.182;2024-03-02T01:38:01;99976.84;;;7.48;100.00
12969;BME280;6549;53.128;8.182;2024-03-02T01:41:02;99976.84;;;7.48;100.00
12969;BME280;6549;53.128;8.182;2024-03-02T01:44:02;99973.25;;;7.40;100.00
12969;BME280;6549;53.128;8.182;2024-03-02T01:47:03;99969.75;;;7.40;100.00
12969;BME280;6549;53.128;8.182;2024-03-02T01:50:03;99960.75;;;7.36;100.00
12969;BME280;6549;53.128;8.182;2024-03-02T01:53:04;99961.09;;;7.27;100.00
12969;BME280;6549;53.128;8.182;2024-03-02T01:56:04;99968.56;;;7.34;100.00
12969;BME280;6549;53.128;8.182;2024-03-02T01:59:05;99962.66;;;7.25;100.00
12969;BME280;6549;53.128;8.182;2024-03-02T02:02:05;99966.97;;;7.29;100.00
12969;BME280;6549;53.128;8.182;2024-03-02T02:05:06;99950.50;;;7.18;100.00
12969;BME280;6549;53.128;8.182;2024-03-02T02:08:06;99955.19;;;7.18;100.00
12969;BME280;6549;53.128;8.182;2024-03-02T02:11:06;99957.47;;;7.09;100.00
12969;BME280;6549;53.128;8.182;2024-03-02T02:14:07;99952.00;;;7.09;100.00
12969;BME280;6549;53.128;8.182;2024-03-02T02:17:07;99937.16;;;7.03;100.00
12969;BME280;6549;53.128;8.182;2024-03-02T02:20:08;99937.09;;;6.96;100.00
12969;BME280;6549;53.128;8.182;2024-03-02T02:23:09;99928.44;;;6.83;100.00
12969;BME280;6549;53.128;8.182;2024-03-02T02:26:10;99924.09;;;6.78;100.00
12969;BME280;6549;53.128;8.182;2024-03-02T02:29:10;99921.00;;;6.76;100.00
12969;BME280;6549;53.128;8.182;2024-03-02T02:32:10;99919.34;;;6.68;100.00
12969;BME280;6549;53.128;8.182;2024-03-02T02:35:11;99923.63;;;6.66;100.00
12969;BME280;6549;53.128;8.182;2024-03-02T02:38:11;99929.13;;;6.69;100.00
12969;BME280;6549;53.128;8.182;2024-03-02T02:41:11;99915.88;;;6.71;100.00
12969;BME280;6549;53.128;8.182;2024-03-02T02:44:12;99912.38;;;6.71;100.00
12969;BME280;6549;53.128;8.182;2024-03-02T02:47:13;99907.63;;;6.64;100.00
12969;BME280;6549;53.128;8.182;2024-03-02T02:50:13;99906.84;;;6.64;100.00
12969;BME280;6549;53.128;8.182;2024-03-02T02:53:13;99906.50;;;6.69;100.00
12969;BME280;6549;53.128;8.182;2024-03-02T02:56:14;99907.63;;;6.64;100.00
12969;BME280;6549;53.128;8.182;2024-03-02T02:59:14;99904.91;;;6.64;100.00
12969;BME280;6549;53.128;8.182;2024-03-02T03:02:14;99894.81;;;6.72;100.00
12969;BME280;6549;53.128;8.182;2024-03-02T03:05:15;99892.88;;;6.72;100.00
12969;BME280;6549;53.128;8.182;2024-03-02T03:08:16;99888.50;;;6.61;100.00
12969;BME280;6549;53.128;8.182;2024-03-02T03:11:16;99892.81;;;6.65;100.00
12969;BME280;6549;53.128;8.182;2024-03-02T03:14:16;99881.13;;;6.68;100.00
12969;BME280;6549;53.128;8.182;2024-03-02T03:17:17;99880.75;;;6.66;100.00
12969;BME280;6549;53.128;8.182;2024-03-02T03:20:17;99872.56;;;6.66;100.00
12969;BME280;6549;53.128;8.182;2024-03-02T03:23:17;99861.63;;;6.66;100.00
12969;BME280;6549;53.128;8.182;2024-03-02T03:26:18;99867.09;;;6.66;100.00
12969;BME280;6549;53.128;8.182;2024-03-02T03:29:18;99869.78;;;6.59;100.00
12969;BME280;6549;53.128;8.182;2024-03-02T03:32:19;99867.81;;;6.60;100.00
12969;BME280;6549;53.128;8.182;2024-03-02T03:35:19;99880.63;;;6.52;100.00
12969;BME280;6549;53.128;8.182;2024-03-02T03:38:19;99878.81;;;6.67;100.00
12969;BME280;6549;53.128;8.182;2024-03-02T03:41:20;99881.88;;;6.62;100.00
12969;BME280;6549;53.128;8.182;2024-03-02T03:44:20;99890.44;;;6.60;100.00
12969;BME280;6549;53.128;8.182;2024-03-02T03:47:20;99880.66;;;6.56;100.00
12969;BME280;6549;53.128;8.182;2024-03-02T03:50:21;99883.78;;;6.54;100.00
12969;BME280;6549;53.128;8.182;2024-03-02T03:53:21;99888.38;;;6.43;100.00
12969;BME280;6549;53.128;8.182;2024-03-02T03:56:22;99886.06;;;6.49;100.00
12969;BME280;6549;53.128;8.182;2024-03-02T03:59:22;99886.44;;;6.47;100.00
12969;BME280;6549;53.128;8.182;2024-03-02T04:02:23;99899.72;;;6.49;100.00
12969;BME280;6549;53.128;8.182;2024-03-02T04:05:24;99897.00;;;6.49;100.00
12969;BME280;6549;53.128;8.182;2024-03-02T04:08:25;99886.06;;;6.45;100.00
12969;BME280;6549;53.128;8.182;2024-03-02T04:11:25;99894.59;;;6.44;100.00
12969;BME280;6549;53.128;8.182;2024-03-02T04:14:26;99902.78;;;6.44;100.00
12969;BME280;6549;53.128;8.182;2024-03-02T04:17:26;99900.50;;;6.46;100.00
12969;BME280;6549;53.128;8.182;2024-03-02T04:20:26;99902.44;;;6.45;100.00
12969;BME280;6549;53.128;8.182;2024-03-02T04:23:27;99904.81;;;6.50;100.00
12969;BME280;6549;53.128;8.182;2024-03-02T04:26:27;99910.63;;;6.45;100.00
12969;BME280;6549;53.128;8.182;2024-03-02T04:29:28;99911.78;;;6.48;100.00
12969;BME280;6549;53.128;8.182;2024-03-02T04:32:28;99911.00;;;6.47;100.00
12969;BME280;6549;53.128;8.182;2024-03-02T04:35:28;99911.03;;;6.51;100.00
12969;BME280;6549;53.128;8.182;2024-03-02T04:38:29;99907.94;;;6.52;100.00
12969;BME280;6549;53.128;8.182;2024-03-02T04:41:30;99917.28;;;6.51;100.00
12969;BME280;6549;53.128;8.182;2024-03-02T04:44:30;99911.03;;;6.51;100.00
12969;BME280;6549;53.128;8.182;2024-03-02T04:47:31;99917.25;;;6.48;100.00
12969;BME280;6549;53.128;8.182;2024-03-02T04:50:31;99917.63;;;6.46;100.00
12969;BME280;6549;53.128;8.182;2024-03-02T04:53:31;99918.47;;;6.50;100.00
12969;BME280;6549;53.128;8.182;2024-03-02T04:56:32;99922.00;;;6.54;100.00
12969;BME280;6549;53.128;8.182;2024-03-02T04:59:32;99923.91;;;6.50;100.00
12969;BME280;6549;53.128;8.182;2024-03-02T05:02:32;99924.25;;;6.45;100.00
12969;BME280;6549;53.128;8.182;2024-03-02T05:05:33;99919.97;;;6.44;100.00
12969;BME280;6549;53.128;8.182;2024-03-02T05:08:33;99923.47;;;6.45;100.00
12969;BME280;6549;53.128;8.182;2024-03-02T05:11:34;99923.38;;;6.34;100.00
12969;BME280;6549;53.128;8.182;2024-03-02T05:14:40;99926.88;;;6.35;100.00
12969;BME280;6549;53.128;8.182;2024-03-02T05:17:41;99928.03;;;6.33;100.00
12969;BME280;6549;53.128;8.182;2024-03-02T05:20:44;99928.00;;;6.30;100.00
12969;BME280;6549;53.128;8.182;2024-03-02T05:23:45;99935.00;;;6.24;100.00
12969;BME280;6549;53.128;8.182;2024-03-02T05:26:45;99935.00;;;6.24;100.00
12969;BME280;6549;53.128;8.182;2024-03-02T05:29:45;99934.94;;;6.20;100.00
12969;BME280;6549;53.128;8.182;2024-03-02T05:32:47;99934.16;;;6.20;100.00
12969;BME280;6549;53.128;8.182;2024-03-02T05:35:47;99929.47;;;6.17;100.00
12969;BME280;6549;53.128;8.182;2024-03-02T05:38:47;99932.59;;;6.19;100.00
12969;BME280;6549;53.128;8.182;2024-03-02T05:41:48;99931.41;;;6.20;100.00
12969;BME280;6549;53.128;8.182;2024-03-02T05:44:48;99930.94;;;6.11;100.00
12969;BME280;6549;53.128;8.182;2024-03-02T05:47:48;99928.69;;;6.20;100.00
12969;BME280;6549;53.128;8.182;2024-03-02T05:50:49;99931.03;;;6.18;100.00
12969;BME280;6549;53.128;8.182;2024-03-02T05:53:49;99932.97;;;6.17;100.00
12969;BME280;6549;53.128;8.182;2024-03-02T05:56:50;99931.72;;;6.11;100.00
12969;BME280;6549;53.128;8.182;2024-03-02T05:59:50;99942.28;;;6.13;100.00
12969;BME280;6549;53.128;8.182;2024-03-02T06:02:50;99939.97;;;6.15;100.00
12969;BME280;6549;53.128;8.182;2024-03-02T06:05:51;99936.41;;;6.11;100.00
12969;BME280;6549;53.128;8.182;2024-03-02T06:08:51;99948.16;;;6.15;100.00
12969;BME280;6549;53.128;8.182;2024-03-02T06:11:52;99939.13;;;6.11;100.00
12969;BME280;6549;53.128;8.182;2024-03-02T06:14:52;99938.78;;;6.16;100.00
12969;BME280;6549;53.128;8.182;2024-03-02T06:17:53;99949.78;;;6.23;100.00
12969;BME280;6549;53.128;8.182;2024-03-02T06:20:53;99956.81;;;6.24;100.00
12969;BME280;6549;53.128;8.182;2024-03-02T06:23:53;99953.66;;;6.22;100.00
12969;BME280;6549;53.128;8.182;2024-03-02T06:26:54;99970.03;;;6.22;100.00
12969;BME280;6549;53.128;8.182;2024-03-02T06:29:54;99967.78;;;6.31;100.00
12969;BME280;6549;53.128;8.182;2024-03-02T06:32:55;99964.31;;;6.34;100.00
12969;BME280;6549;53.128;8.182;2024-03-02T06:35:55;99972.50;;;6.34;100.00
12969;BME280;6549;53.128;8.182;2024-03-02T06:38:55;99980.31;;;6.36;100.00
12969;BME280;6549;53.128;8.182;2024-03-02T06:41:56;99977.59;;;6.39;100.00
12969;BME280;6549;53.128;8.182;2024-03-02T06:44:56;99984.28;;;6.42;100.00
12969;BME280;6549;53.128;8.182;2024-03-02T06:47:57;99989.03;;;6.52;100.00
12969;BME280;6549;53.128;8.182;2024-03-02T06:50:57;99988.38;;;6.65;100.00
12969;BME280;6549;53.128;8.182;2024-03-02T06:53:58;99994.06;;;6.94;100.00
12969;BME280;6549;53.128;8.182;2024-03-02T06:56:58;99999.53;;;6.94;100.00
12969;BME280;6549;53.128;8.182;2024-03-02T06:59:59;100000.31;;;6.94;100.00
12969;BME280;6549;53.128;8.182;2024-03-02T07:02:59;99998.38;;;6.95;100.00
12969;BME280;6549;53.128;8.182;2024-03-02T07:05:59;100001.91;;;6.99;100.00
12969;BME280;6549;53.128;8.182;2024-03-02T07:09:00;100001.25;;;7.19;100.00
12969;BME280;6549;53.128;8.182;2024-03-02T07:12:00;100001.28;;;7.23;100.00
12969;BME280;6549;53.128;8.182;2024-03-02T07:15:02;100000.91;;;7.21;100.00
12969;BME280;6549;53.128;8.182;2024-03-02T07:18:03;100002.75;;;7.06;100.00
12969;BME280;6549;53.128;8.182;2024-03-02T07:21:04;100005.72;;;6.91;100.00
12969;BME280;6549;53.128;8.182;2024-03-02T07:24:04;99998.31;;;6.91;100.00
12969;BME280;6549;53.128;8.182;2024-03-02T07:27:06;99998.66;;;6.86;100.00
12969;BME280;6549;53.128;8.182;2024-03-02T07:30:07;99995.19;;;6.89;100.00
12969;BME280;6549;53.128;8.182;2024-03-02T07:33:07;100002.63;;;6.92;100.00
12969;BME280;6549;53.128;8.182;2024-03-02T07:36:08;100004.59;;;6.95;100.00
12969;BME280;6549;53.128;8.182;2024-03-02T07:39:08;100009.72;;;7.00;100.00
12969;BME280;6549;53.128;8.182;2024-03-02T07:42:08;100006.34;;;7.21;100.00
12969;BME280;6549;53.128;8.182;2024-03-02T07:45:09;100010.75;;;7.40;100.00
12969;BME280;6549;53.128;8.182;2024-03-02T07:48:09;100030.41;;;7.63;100.00
12969;BME280;6549;53.128;8.182;2024-03-02T07:51:10;100034.44;;;7.83;100.00
12969;BME280;6549;53.128;8.182;2024-03-02T07:54:10;100040.03;;;8.22;100.00
12969;BME280;6549;53.128;8.182;2024-03-02T07:57:11;100042.84;;;8.40;100.00
12969;BME280;6549;53.128;8.182;2024-03-02T08:00:11;100041.72;;;8.76;100.00
12969;BME280;6549;53.128;8.182;2024-03-02T08:03:12;100044.88;;;8.96;100.00
12969;BME280;6549;53.128;8.182;2024-03-02T08:06:13;100045.25;;;9.05;100.00
12969;BME280;6549;53.128;8.182;2024-03-02T08:09:14;100047.22;;;9.15;100.00
12969;BME280;6549;53.128;8.182;2024-03-02T08:12:15;100042.09;;;9.31;100.00
12969;BME280;6549;53.128;8.182;2024-03-02T08:15:15;100052.69;;;9.36;100.00
12969;BME280;6549;53.128;8.182;2024-03-02T08:18:16;100047.97;;;9.40;100.00
12969;BME280;6549;53.128;8.182;2024-03-02T08:21:16;100064.41;;;9.44;100.00
12969;BME280;6549;53.128;8.182;2024-03-02T08:24:17;100066.00;;;9.31;100.00
12969;BME280;6549;53.128;8.182;2024-03-02T08:27:17;100064.78;;;9.64;100.00
12969;BME280;6549;53.128;8.182;2024-03-02T08:30:17;100059.25;;;9.74;100.00
12969;BME280;6549;53.128;8.182;2024-03-02T08:33:18;100060.41;;;9.84;100.00
12969;BME280;6549;53.128;8.182;2024-03-02T08:36:19;100064.38;;;9.72;100.00
12969;BME280;6549;53.128;8.182;2024-03-02T08:39:19;100058.00;;;9.97;100.00
12969;BME280;6549;53.128;8.182;2024-03-02T08:42:21;100063.06;;;10.16;100.00
12969;BME280;6549;53.128;8.182;2024-03-02T08:45:21;100064.91;;;10.36;100.00
12969;BME280;6549;53.128;8.182;2024-03-02T08:48:22;100070.88;;;10.21;100.00
12969;BME280;6549;53.128;8.182;2024-03-02T08:51:22;100068.56;;;10.09;100.00
12969;BME280;6549;53.128;8.182;2024-03-02T08:54:22;100078.75;;;10.15;100.00
12969;BME280;6549;53.128;8.182;2024-03-02T08:57:23;100088.00;;;10.50;100.00
12969;BME280;6549;53.128;8.182;2024-03-02T09:00:23;100088.00;;;10.53;100.00
12969;BME280;6549;53.128;8.182;2024-03-02T09:03:24;100090.59;;;10.78;100.00
12969;BME280;6549;53.128;8.182;2024-03-02T09:06:24;100086.59;;;10.86;100.00
12969;BME280;6549;53.128;8.182;2024-03-02T09:09:24;100096.91;;;10.75;100.00
12969;BME280;6549;53.128;8.182;2024-03-02T09:12:25;100102.88;;;10.56;100.00
12969;BME280;6549;53.128;8.182;2024-03-02T09:15:25;100093.50;;;10.53;100.00
12969;BME280;6549;53.128;8.182;2024-03-02T09:18:26;100107.09;;;10.74;100.00
12969;BME280;6549;53.128;8.182;2024-03-02T09:21:26;100101.66;;;10.64;100.00
12969;BME280;6549;53.128;8.182;2024-03-02T09:24:27;100106.22;;;10.88;100.00
12969;BME280;6549;53.128;8.182;2024-03-02T09:27:27;100106.97;;;10.96;100.00
12969;BME280;6549;53.128;8.182;2024-03-02T09:30:27;100108.84;;;11.02;100.00
12969;BME280;6549;53.128;8.182;2024-03-02T09:33:28;100106.13;;;10.99;100.00
12969;BME280;6549;53.128;8.182;2024-03-02T09:36:28;100102.69;;;11.39;100.00
12969;BME280;6549;53.128;8.182;2024-03-02T09:39:28;100104.56;;;11.01;100.00
12969;BME280;6549;53.128;8.182;2024-03-02T09:42:29;100111.38;;;10.75;100.00
12969;BME280;6549;53.128;8.182;2024-03-02T09:45:30;100113.47;;;11.19;100.00
12969;BME280;6549;53.128;8.182;2024-03-02T09:48:31;100112.53;;;11.37;100.00
12969;BME280;6549;53.128;8.182;2024-03-02T09:51:32;100108.38;;;11.62;100.00
12969;BME280;6549;53.128;8.182;2024-03-02T09:54:32;100106.22;;;11.84;100.00
12969;BME280;6549;53.128;8.182;2024-03-02T09:57:32;100100.00;;;11.77;100.00
12969;BME280;6549;53.128;8.182;2024-03-02T10:00:33;100096.88;;;11.71;100.00
12969;BME280;6549;53.128;8.182;2024-03-02T10:03:33;100104.78;;;11.65;100.00
12969;BME280;6549;53.128;8.182;2024-03-02T10:06:34;100101.34;;;11.99;100.00
12969;BME280;6549;53.128;8.182;2024-03-02T10:09:34;100101.59;;;11.74;100.00
12969;BME280;6549;53.128;8.182;2024-03-02T10:12:34;100092.56;;;11.70;100.00
12969;BME280;6549;53.128;8.182;2024-03-02T10:15:35;100100.66;;;11.88;100.00
12969;BME280;6549;53.128;8.182;2024-03-02T10:18:37;100096.13;;;11.67;100.00
12969;BME280;6549;53.128;8.182;2024-03-02T10:21:40;100098.03;;;12.11;100.00
12969;BME280;6549;53.128;8.182;2024-03-02T10:24:42;100101.19;;;12.09;100.00
12969;BME280;6549;53.128;8.182;2024-03-02T10:27:44;100108.19;;;12.18;100.00
12969;BME280;6549;53.128;8.182;2024-03-02T10:30:47;100101.88;;;12.17;100.00
12969;BME280;6549;53.128;8.182;2024-03-02T10:33:48;100106.59;;;12.20;100.00
12969;BME280;6549;53.128;8.182;2024-03-02T10:36:49;100100.63;;;11.91;100.00
12969;BME280;6549;53.128;8.182;2024-03-02T10:39:52;100099.91;;;12.18;100.00
12969;BME280;6549;53.128;8.182;2024-03-02T10:42:52;100104.25;;;12.19;100.00
12969;BME280;6549;53.128;8.182;2024-03-02T10:45:54;100104.19;;;12.22;100.00
12969;BME280;6549;53.128;8.182;2024-03-02T10:48:56;100099.47;;;12.23;100.00
12969;BME280;6549;53.128;8.182;2024-03-02T10:51:59;100096.47;;;12.10;100.00
12969;BME280;6549;53.128;8.182;2024-03-02T10:54:59;100097.03;;;12.28;100.00
12969;BME280;6549;53.128;8.182;2024-03-02T10:58:00;100094.28;;;12.58;100.00
12969;BME280;6549;53.128;8.182;2024-03-02T11:01:05;100094.28;;;12.58;100.00
12969;BME280;6549;53.128;8.182;2024-03-02T11:04:08;100089.34;;;12.73;98.90
12969;BME280;6549;53.128;8.182;2024-03-02T11:07:10;100084.59;;;12.47;100.00
12969;BME280;6549;53.128;8.182;2024-03-02T11:10:11;100084.63;;;12.74;100.00
12969;BME280;6549;53.128;8.182;2024-03-02T11:13:12;100083.63;;;12.87;100.00
12969;BME280;6549;53.128;8.182;2024-03-02T11:16:35;100097.88;;;12.82;99.94
12969;BME280;6549;53.128;8.182;2024-03-02T11:19:38;100092.88;;;13.00;96.64
12969;BME280;6549;53.128;8.182;2024-03-02T11:22:38;100100.06;;;12.68;98.02
12969;BME280;6549;53.128;8.182;2024-03-02T11:25:39;100097.00;;;12.89;95.12
12969;BME280;6549;53.128;8.182;2024-03-02T11:28:39;100106.69;;;13.00;94.09
12969;BME280;6549;53.128;8.182;2024-03-02T11:32:01;100103.88;;;13.04;96.47
12969;BME280;6549;53.128;8.182;2024-03-02T11:35:02;100105.19;;;12.92;94.17
12969;BME280;6549;53.128;8.182;2024-03-02T11:38:02;100099.94;;;13.01;94.75
12969;BME280;6549;53.128;8.182;2024-03-02T11:41:07;100112.47;;;13.06;95.71
12969;BME280;6549;53.128;8.182;2024-03-02T11:44:08;100106.06;;;13.16;95.02
12969;BME280;6549;53.128;8.182;2024-03-02T11:47:14;100106.00;;;13.20;96.70
12969;BME280;6549;53.128;8.182;2024-03-02T11:50:15;100103.44;;;13.05;92.47
12969;BME280;6549;53.128;8.182;2024-03-02T11:53:16;100099.66;;;13.23;94.64
12969;BME280;6549;53.128;8.182;2024-03-02T11:56:18;100095.44;;;13.38;93.79
12969;BME280;6549;53.128;8.182;2024-03-02T11:59:20;100095.06;;;13.59;93.71
12969;BME280;6549;53.128;8.182;2024-03-02T12:02:21;100100.81;;;13.48;92.59
12969;BME280;6549;53.128;8.182;2024-03-02T12:05:22;100090.25;;;13.63;96.06
12969;BME280;6549;53.128;8.182;2024-03-02T12:08:22;100091.13;;;13.60;91.96
12969;BME280;6549;53.128;8.182;2024-03-02T12:11:23;100091.50;;;13.62;92.06
12969;BME280;6549;53.128;8.182;2024-03-02T12:14:23;100084.97;;;13.72;92.62
12969;BME280;6549;53.128;8.182;2024-03-02T12:17:24;100089.91;;;13.61;90.32
12969;BME280;6549;53.128;8.182;2024-03-02T12:20:27;100089.03;;;13.44;90.27
12969;BME280;6549;53.128;8.182;2024-03-02T12:23:29;100085.25;;;13.58;88.59
12969;BME280;6549;53.128;8.182;2024-03-02T12:26:29;100076.59;;;13.56;90.49
12969;BME280;6549;53.128;8.182;2024-03-02T12:29:30;100089.22;;;13.57;87.96
12969;BME280;6549;53.128;8.182;2024-03-02T12:32:31;100084.69;;;13.67;89.26
12969;BME280;6549;53.128;8.182;2024-03-02T12:35:32;100089.75;;;13.91;91.84
12969;BME280;6549;53.128;8.182;2024-03-02T12:38:32;100089.75;;;13.91;85.05
12969;BME280;6549;53.128;8.182;2024-03-02T12:41:32;100085.19;;;13.81;84.06
12969;BME280;6549;53.128;8.182;2024-03-02T12:44:33;100093.06;;;13.83;82.33
12969;BME280;6549;53.128;8.182;2024-03-02T12:47:34;100087.81;;;13.69;84.53
12969;BME280;6549;53.128;8.182;2024-03-02T12:50:35;100082.88;;;13.80;82.42
12969;BME280;6549;53.128;8.182;2024-03-02T12:53:35;100081.94;;;13.86;81.83
12969;BME280;6549;53.128;8.182;2024-03-02T12:56:40;100072.66;;;13.77;82.23
12969;BME280;6549;53.128;8.182;2024-03-02T12:59:45;100075.94;;;14.11;83.50
12969;BME280;6549;53.128;8.182;2024-03-02T13:02:46;100078.13;;;14.00;81.92
12969;BME280;6549;53.128;8.182;2024-03-02T13:05:51;100078.28;;;14.13;81.42
12969;BME280;6549;53.128;8.182;2024-03-02T13:08:53;100076.06;;;14.04;80.60
12969;BME280;6549;53.128;8.182;2024-03-02T13:11:54;100067.59;;;14.15;83.02
12969;BME280;6549;53.128;8.182;2024-03-02T13:14:54;100060.38;;;14.01;80.43
12969;BME280;6549;53.128;8.182;2024-03-02T13:17:58;100055.47;;;14.09;81.35
12969;BME280;6549;53.128;8.182;2024-03-02T13:21:00;100064.19;;;14.07;80.63
12969;BME280;6549;53.128;8.182;2024-03-02T13:24:00;100054.22;;;14.29;80.04
12969;BME280;6549;53.128;8.182;2024-03-02T13:27:01;100048.72;;;14.49;79.21
12969;BME280;6549;53.128;8.182;2024-03-02T13:30:04;100043.38;;;14.58;78.70
12969;BME280;6549;53.128;8.182;2024-03-02T13:33:08;100050.72;;;14.65;79.73
12969;BME280;6549;53.128;8.182;2024-03-02T13:36:09;100049.78;;;14.55;78.80
12969;BME280;6549;53.128;8.182;2024-03-02T13:39:10;100036.03;;;14.68;80.22
12969;BME280;6549;53.128;8.182;2024-03-02T13:42:11;100036.19;;;14.61;76.64
12969;BME280;6549;53.128;8.182;2024-03-02T13:45:14;100034.19;;;14.45;78.21
12969;BME280;6549;53.128;8.182;2024-03-02T13:48:14;100024.84;;;14.39;77.81
12969;BME280;6549;53.128;8.182;2024-03-02T13:51:15;100031.53;;;14.58;77.30
12969;BME280;6549;53.128;8.182;2024-03-02T13:54:15;100027.78;;;14.48;77.16
12969;BME280;6549;53.128;8.182;2024-03-02T13:57:16;100023.22;;;14.42;78.04
12969;BME280;6549;53.128;8.182;2024-03-02T14:00:19;100033.31;;;14.48;78.07
12969;BME280;6549;53.128;8.182;2024-03-02T14:03:20;100027.16;;;14.60;78.77
12969;BME280;6549;53.128;8.182;2024-03-02T14:06:20;100032.13;;;14.29;77.71
12969;BME280;6549;53.128;8.182;2024-03-02T14:09:21;100037.28;;;14.11;78.95
12969;BME280;6549;53.128;8.182;2024-03-02T14:12:21;100031.94;;;14.20;80.29
12969;BME280;6549;53.128;8.182;2024-03-02T14:15:23;100026.47;;;14.17;78.99
12969;BME280;6549;53.128;8.182;2024-03-02T14:18:24;100034.28;;;14.22;78.49
12969;BME280;6549;53.128;8.182;2024-03-02T14:21:25;100034.56;;;14.27;78.86
12969;BME280;6549;53.128;8.182;2024-03-02T14:24:25;100030.03;;;14.37;79.13
12969;BME280;6549;53.128;8.182;2024-03-02T14:27:26;100025.31;;;14.54;78.14
12969;BME280;6549;53.128;8.182;2024-03-02T14:30:26;100028.84;;;14.54;78.11
12969;BME280;6549;53.128;8.182;2024-03-02T14:33:28;100023.84;;;14.65;78.87
12969;BME280;6549;53.128;8.182;2024-03-02T14:36:28;100032.69;;;14.76;79.63
12969;BME280;6549;53.128;8.182;2024-03-02T14:39:29;100022.22;;;14.68;81.02
12969;BME280;6549;53.128;8.182;2024-03-02T14:42:30;100028.84;;;14.54;81.07
12969;BME280;6549;53.128;8.182;2024-03-02T14:45:31;100021.06;;;14.65;82.42
12969;BME280;6549;53.128;8.182;2024-03-02T14:48:32;100013.47;;;14.53;82.47
12969;BME280;6549;53.128;8.182;2024-03-02T14:51:32;100012.06;;;14.45;82.10
12969;BME280;6549;53.128;8.182;2024-03-02T14:54:32;100013.56;;;14.50;83.39
12969;BME280;6549;53.128;8.182;2024-03-02T14:57:35;100005.72;;;14.64;84.12
12969;BME280;6549;53.128;8.182;2024-03-02T15:00:35;100013.63;;;14.46;84.49
12969;BME280;6549;53.128;8.182;2024-03-02T15:03:35;100008.47;;;14.28;82.95
12969;BME280;6549;53.128;8.182;2024-03-02T15:06:36;100002.31;;;14.21;84.54
12969;BME280;6549;53.128;8.182;2024-03-02T15:09:36;100007.78;;;14.05;84.32
12969;BME280;6549;53.128;8.182;2024-03-02T15:12:37;100006.22;;;14.04;85.61
12969;BME280;6549;53.128;8.182;2024-03-02T15:15:37;100001.72;;;13.93;86.64
12969;BME280;6549;53.128;8.182;2024-03-02T15:18:38;99999.09;;;13.86;86.93
12969;BME280;6549;53.128;8.182;2024-03-02T15:21:38;99996.13;;;13.77;87.35
12969;BME280;6549;53.128;8.182;2024-03-02T15:24:38;100002.44;;;13.78;86.87
12969;BME280;6549;53.128;8.182;2024-03-02T15:27:39;100001.03;;;13.89;86.90
12969;BME280;6549;53.128;8.182;2024-03-02T15:30:40;99999.09;;;13.86;86.02
12969;BME280;6549;53.128;8.182;2024-03-02T15:33:41;99995.22;;;13.64;83.30
12969;BME280;6549;53.128;8.182;2024-03-02T15:36:42;99998.56;;;13.75;84.29
12969;BME280;6549;53.128;8.182;2024-03-02T15:39:43;100003.56;;;13.80;83.32
12969;BME280;6549;53.128;8.182;2024-03-02T15:42:44;99995.72;;;13.79;85.81
12969;BME280;6549;53.128;8.182;2024-03-02T15:45:44;99997.19;;;13.83;84.65
12969;BME280;6549;53.128;8.182;2024-03-02T15:48:45;99999.34;;;13.76;84.02
12969;BME280;6549;53.128;8.182;2024-03-02T15:51:45;100008.59;;;13.66;83.98
12969;BME280;6549;53.128;8.182;2024-03-02T15:54:45;99995.69;;;13.59;84.39
12969;BME280;6549;53.128;8.182;2024-03-02T15:57:46;99996.47;;;13.60;85.26
12969;BME280;6549;53.128;8.182;2024-03-02T16:00:46;100000.88;;;13.57;84.77
12969;BME280;6549;53.128;8.182;2024-03-02T16:03:47;100007.19;;;13.58;86.09